Time;durP1;ratioP1;P1;durP2;ratioP2;P2;SDS_P1;SDS_P2;PMS_P1;PMS_P2;Temp;Humidity;BMP_temperature;BMP_pressure;BME280_temperature;BME280_humidity;BME280_pressure;Samples;Min_cycle;Max_cycle;Signal;HPM_P1;HPM_P2
2022/01/15 09:51:55;;;;;;;3.05;0.80;;;;;;;9.73;35.94;99616.09;1869615;74;22593;-61
2022/01/15 09:54:22;;;;;;;3.47;0.70;;;;;;;9.06;37.28;99609.23;1848494;76;21041;-61
2022/01/15 09:56:50;;;;;;;4.25;0.95;;;;;;;8.33;38.66;99628.86;1843868;75;21136;-62
2022/01/15 09:59:17;;;;;;;5.15;1.07;;;;;;;7.59;40.28;99615.69;1808643;77;21046;-62
2022/01/15 10:01:46;;;;;;;2.77;0.60;;;;;;;6.89;41.99;99612.41;1842676;75;21065;-61
2022/01/15 10:04:13;;;;;;;2.75;0.85;;;;;;;6.43;43.28;99621.14;1843210;75;20961;-61
2022/01/15 10:07:10;;;;;;;3.12;0.93;;;;;;;6.01;44.59;99626.81;1849231;75;20955;-62
2022/01/15 10:09:37;;;;;;;3.53;0.53;;;;;;;5.62;45.56;99626.59;1772142;78;21709;-61
2022/01/15 10:12:04;;;;;;;3.15;0.80;;;;;;;5.24;46.85;99636.64;1781013;78;21054;-60
2022/01/15 10:14:36;;;;;;;4.25;1.15;;;;;;;4.96;47.73;99626.36;1772665;79;21066;-61
2022/01/15 10:17:19;;;;;;;2.98;0.62;;;;;;;4.81;48.50;99623.50;1789956;79;21380;-60
2022/01/15 10:19:48;;;;;;;5.08;0.82;;;;;;;4.65;49.02;99637.55;1769970;78;21081;-61
2022/01/15 10:22:17;;;;;;;5.45;0.82;;;;;;;4.52;49.34;99615.03;1784095;78;21573;-62
2022/01/15 10:25:03;;;;;;;2.72;0.72;;;;;;;4.45;49.63;99640.66;1782687;78;21066;-60
2022/01/15 10:27:39;;;;;;;5.12;0.62;;;;;;;4.39;49.27;99633.27;1782267;78;21459;-60
2022/01/15 10:30:13;;;;;;;3.05;0.72;;;;;;;4.31;49.44;99647.27;1776416;78;21574;-61
2022/01/15 10:33:04;;;;;;;2.72;0.72;;;;;;;4.21;49.80;99638.73;1785356;78;21105;-61
2022/01/15 10:35:34;;;;;;;3.60;0.90;;;;;;;4.16;50.60;99651.23;1780512;78;21119;-62
2022/01/15 10:38:07;;;;;;;2.62;0.68;;;;;;;4.11;50.38;99658.50;1787388;78;20987;-62
2022/01/15 10:40:46;;;;;;;2.42;0.50;;;;;;;4.09;50.15;99648.19;1783099;79;21109;-62
2022/01/15 10:43:18;;;;;;;4.70;1.12;;;;;;;4.09;50.40;99647.36;1785587;78;21070;-60
2022/01/15 10:45:54;;;;;;;5.55;0.75;;;;;;;4.13;50.56;99631.89;1786327;78;21036;-60
2022/01/15 10:48:26;;;;;;;;;;;;;;;4.21;50.48;99644.42;1758410;79;21479;-63
2022/01/15 10:51:03;;;;;;;3.08;0.85;;;;;;;4.24;50.17;99642.92;1745460;79;20197;-61
2022/01/15 10:53:37;;;;;;;3.20;0.80;;;;;;;4.18;50.12;99641.54;1765445;79;21015;-62
2022/01/15 10:56:06;;;;;;;2.47;0.60;;;;;;;4.13;49.99;99647.52;1737655;80;21090;-62
2022/01/15 10:58:33;;;;;;;4.75;0.98;;;;;;;4.08;50.59;99671.72;1759672;79;21405;-63
2022/01/15 11:01:00;;;;;;;2.60;0.55;;;;;;;3.99;51.62;99670.55;1718618;80;21198;-62
2022/01/15 11:03:38;;;;;;;2.90;0.50;;;;;;;3.92;52.16;99664.07;1752932;79;21268;-62
2022/01/15 11:06:05;;;;;;;4.53;0.80;;;;;;;3.87;52.16;99664.83;1754748;79;21046;-61
2022/01/15 11:08:40;;;;;;;4.05;0.90;;;;;;;3.83;52.19;99673.75;1760004;79;21563;-65
2022/01/15 11:11:09;;;;;;;2.50;0.62;;;;;;;3.83;52.12;99678.51;1735896;79;21073;-62
2022/01/15 11:13:39;;;;;;;4.42;1.20;;;;;;;3.86;52.27;99683.49;1754740;79;22791;-62
2022/01/15 11:16:14;;;;;;;2.92;0.53;;;;;;;3.87;52.42;99668.26;1754538;79;21049;-60
2022/01/15 11:18:44;;;;;;;4.08;0.98;;;;;;;3.91;52.40;99691.02;1751968;79;21100;-62
2022/01/15 11:21:15;;;;;;;3.12;0.80;;;;;;;3.92;52.17;99680.98;1761446;79;21085;-63
2022/01/15 11:23:43;;;;;;;6.22;0.93;;;;;;;3.88;52.50;99663.88;1762032;79;21089;-63
2022/01/15 11:26:24;;;;;;;3.90;0.90;;;;;;;3.91;52.84;99693.14;1764785;79;21158;-61
2022/01/15 11:28:53;;;;;;;4.97;1.15;;;;;;;3.86;52.91;99685.27;1738112;80;21052;-63
2022/01/15 11:31:26;;;;;;;5.37;1.10;;;;;;;3.88;52.92;99676.89;1738889;80;21133;-61
2022/01/15 11:33:55;;;;;;;4.03;1.02;;;;;;;3.93;52.44;99701.33;1761319;79;21078;-62
2022/01/15 11:36:42;;;;;;;4.15;0.70;;;;;;;4.00;52.60;99702.16;1758519;79;21062;-63
2022/01/15 11:39:11;;;;;;;7.17;1.00;;;;;;;4.01;51.90;99701.69;1734133;80;21206;-62
2022/01/15 11:41:45;;;;;;;2.33;0.57;;;;;;;4.00;51.88;99700.86;1760725;79;21955;-63
2022/01/15 11:44:19;;;;;;;2.45;0.53;;;;;;;3.99;52.05;99724.38;1750699;79;21046;-61
2022/01/15 11:46:54;;;;;;;3.40;0.80;;;;;;;4.00;51.82;99717.78;1750820;79;21035;-64
2022/01/15 11:49:38;;;;;;;4.20;1.20;;;;;;;4.00;51.83;99722.98;1753585;79;21043;-62
2022/01/15 11:52:14;;;;;;;4.50;1.55;;;;;;;4.00;51.79;99722.13;1776145;78;21359;-64
2022/01/15 11:54:52;;;;;;;7.85;2.52;;;;;;;4.00;51.54;99720.39;1748019;78;21481;-64
2022/01/15 11:57:27;;;;;;;3.85;1.45;;;;;;;4.00;51.54;99720.39;1784295;78;21050;-64
2022/01/15 12:00:26;;;;;;;4.42;1.45;;;;;;;4.03;51.78;99729.28;1757786;79;21041;-64
2022/01/15 12:03:01;;;;;;;4.80;1.40;;;;;;;4.03;51.29;99731.05;1756077;78;21633;-63
2022/01/15 12:05:33;;;;;;;3.70;1.07;;;;;;;4.04;51.10;99721.84;1786897;78;26522;-63
2022/01/15 12:08:05;;;;;;;7.35;1.67;;;;;;;4.07;51.11;99728.64;1754625;79;21037;-63
2022/01/15 12:10:45;;;;;;;4.08;1.20;;;;;;;4.10;50.88;99731.03;1781912;79;21559;-64
2022/01/15 12:13:19;;;;;;;4.78;1.45;;;;;;;4.13;51.00;99744.33;1783699;79;21097;-64
2022/01/15 12:15:43;;;;;;;4.12;1.20;;;;;;;4.14;50.87;99734.30;1779315;78;21025;-65
2022/01/15 12:18:18;;;;;;;3.47;1.00;;;;;;;4.17;51.06;99737.98;1750060;79;21743;-64
2022/01/15 12:20:45;;;;;;;3.70;1.30;;;;;;;4.18;50.57;99740.97;1786196;78;21646;-63
2022/01/15 12:23:25;;;;;;;4.00;1.00;;;;;;;4.15;50.62;99748.97;1783379;78;21038;-64
2022/01/15 12:25:55;;;;;;;4.78;0.88;;;;;;;4.13;50.64;99760.78;1782611;78;21403;-63
2022/01/15 12:28:24;;;;;;;3.33;0.85;;;;;;;4.05;52.16;99760.42;1783230;78;21023;-63
2022/01/15 12:30:53;;;;;;;2.55;0.75;;;;;;;4.00;51.38;99751.63;1786830;78;21147;-63
2022/01/15 12:33:19;;;;;;;2.20;0.70;;;;;;;3.98;51.49;99777.37;1785674;78;20994;-63
2022/01/15 12:35:51;;;;;;;4.37;1.02;;;;;;;3.94;52.15;99764.19;1777066;79;21737;-63
2022/01/15 12:38:28;;;;;;;4.37;1.07;;;;;;;3.95;52.02;99778.86;1787401;78;21649;-63
2022/01/15 12:41:06;;;;;;;4.25;0.90;;;;;;;3.95;52.19;99773.20;1783691;78;21017;-63
2022/01/15 12:43:35;;;;;;;4.20;1.10;;;;;;;3.93;51.93;99786.75;1784645;79;21136;-64
2022/01/15 12:46:06;;;;;;;3.20;0.88;;;;;;;3.93;52.10;99797.64;1782151;79;21093;-64
2022/01/15 12:48:34;;;;;;;3.30;0.93;;;;;;;3.91;52.31;99795.95;1777968;79;21109;-64
2022/01/15 12:51:07;;;;;;;4.72;1.10;;;;;;;3.92;52.27;99792.91;1774972;78;21058;-63
2022/01/15 12:53:36;;;;;;;4.28;1.10;;;;;;;3.89;52.31;99801.73;1783437;78;21563;-64
2022/01/15 12:56:10;;;;;;;5.17;1.10;;;;;;;3.93;52.39;99804.15;1801029;78;21062;-65
2022/01/15 12:58:39;;;;;;;5.78;1.37;;;;;;;3.89;53.15;99804.34;1805014;77;21012;-65
2022/01/15 13:01:08;;;;;;;3.95;0.93;;;;;;;3.94;53.17;99816.25;1804462;77;21074;-64
2022/01/15 13:03:39;;;;;;;3.85;0.75;;;;;;;3.99;52.49;99825.91;1775033;78;21098;-64
2022/01/15 13:06:07;;;;;;;3.90;0.93;;;;;;;3.99;51.76;99828.52;1801901;78;21023;-64
2022/01/15 13:08:38;;;;;;;5.78;1.37;;;;;;;3.93;51.71;99827.10;1779937;77;21193;-65
2022/01/15 13:11:09;;;;;;;4.28;0.62;;;;;;;3.94;53.12;99831.87;1771586;79;21000;-63
2022/01/15 13:13:46;;;;;;;3.30;1.00;;;;;;;3.96;51.73;99848.22;1803051;77;21642;-63
2022/01/15 13:16:15;;;;;;;4.45;1.00;;;;;;;3.91;52.05;99850.63;1779900;79;21004;-64
2022/01/15 13:18:44;;;;;;;3.35;1.00;;;;;;;3.91;52.37;99852.39;1806225;77;21040;-66
2022/01/15 13:21:20;;;;;;;5.62;1.12;;;;;;;3.88;52.25;99861.69;1768193;79;21126;-66
2022/01/15 13:23:54;;;;;;;6.25;1.42;;;;;;;3.88;52.27;99865.59;1807644;77;21011;-62
2022/01/15 13:26:35;;;;;;;4.03;1.25;;;;;;;3.87;52.32;99869.97;1810371;77;21031;-61
2022/01/15 13:29:06;;;;;;;3.20;0.90;;;;;;;3.83;52.08;99878.91;1807900;77;21035;-65
2022/01/15 13:31:34;;;;;;;3.30;0.98;;;;;;;3.83;52.45;99901.03;1808155;77;21673;-65
2022/01/15 13:34:16;;;;;;;8.65;1.52;;;;;;;3.81;52.33;99896.83;1802929;77;21218;-65
2022/01/15 13:36:46;;;;;;;3.15;1.00;;;;;;;3.80;52.34;99897.75;1804286;77;21115;-66
2022/01/15 13:39:14;;;;;;;4.25;1.17;;;;;;;3.80;52.48;99902.51;1800686;77;21048;-64
2022/01/15 13:41:41;;;;;;;3.47;1.02;;;;;;;3.80;52.63;99912.92;1806110;77;21117;-62
2022/01/15 13:44:16;;;;;;;4.00;1.15;;;;;;;3.79;52.79;99925.55;1808217;79;21091;-63
2022/01/15 13:46:45;;;;;;;9.80;1.37;;;;;;;3.77;53.52;99924.80;1775285;78;22733;-63
2022/01/15 13:49:18;;;;;;;4.10;1.20;;;;;;;3.76;53.92;99931.40;1772398;77;21214;-64
2022/01/15 13:54:38;;;;;;;12.07;2.10;;;;;;;3.61;57.60;99953.47;1800778;78;21091;-63
2022/01/15 13:57:08;;;;;;;5.33;1.40;;;;;;;3.38;63.34;99949.62;1806201;78;21472;-63
2022/01/15 13:59:35;;;;;;;4.20;1.22;;;;;;;3.21;64.01;99959.67;1805194;77;21124;-63
2022/01/15 14:02:02;;;;;;;4.22;1.05;;;;;;;3.05;64.41;99956.25;1807858;77;21532;-65
2022/01/15 14:04:36;;;;;;;5.90;1.12;;;;;;;2.93;64.78;99974.66;1777924;78;21018;-62
2022/01/15 14:07:07;;;;;;;4.37;1.45;;;;;;;2.84;65.17;99980.34;1802747;77;21034;-62
2022/01/15 14:09:36;;;;;;;3.65;1.12;;;;;;;2.89;65.23;99991.33;1804297;77;21543;-62
2022/01/15 14:12:11;;;;;;;3.30;0.80;;;;;;;2.83;65.65;99987.31;1803864;77;21250;-62
2022/01/15 14:15:03;;;;;;;4.92;1.47;;;;;;;2.76;65.92;99979.48;1803610;78;21050;-62
2022/01/15 14:17:28;;;;;;;3.77;1.30;;;;;;;2.71;66.04;99986.22;1779298;79;21352;-62
2022/01/15 14:22:32;;;;;;;4.22;1.32;;;;;;;2.74;65.92;100002.08;1801479;78;21120;-63
2022/01/15 14:25:22;;;;;;;5.33;1.67;;;;;;;2.72;65.93;100003.49;1796738;77;21333;-63
2022/01/15 14:28:10;;;;;;;5.50;1.57;;;;;;;2.71;65.91;100004.41;1795913;77;21563;-62
2022/01/15 14:30:41;;;;;;;4.80;1.40;;;;;;;2.82;65.69;100014.67;1800906;77;21081;-62
2022/01/15 14:33:08;;;;;;;3.62;1.17;;;;;;;2.91;65.43;100016.80;1758334;79;21045;-61
2022/01/15 14:35:34;;;;;;;6.40;1.57;;;;;;;2.95;65.10;100020.89;1759153;79;21558;-63
2022/01/15 14:38:01;;;;;;;7.42;2.33;;;;;;;2.95;64.88;100015.70;1761428;79;21117;-62
2022/01/15 14:40:27;;;;;;;8.25;2.17;;;;;;;2.94;64.74;100012.70;1761020;79;21551;-63
2022/01/15 14:42:54;;;;;;;4.92;1.80;;;;;;;2.95;64.55;100018.30;1757000;79;21116;-64
2022/01/15 14:45:21;;;;;;;5.87;1.82;;;;;;;2.96;64.40;100027.31;1758884;79;21057;-64
2022/01/15 14:47:51;;;;;;;4.28;1.47;;;;;;;2.95;64.30;100026.09;1757529;79;21112;-65
2022/01/15 14:50:19;;;;;;;4.70;1.72;;;;;;;3.03;63.95;100023.09;1763020;79;21244;-61
2022/01/15 14:52:45;;;;;;;4.80;1.80;;;;;;;3.12;63.23;100019.50;1734655;79;21045;-62
2022/01/15 14:55:12;;;;;;;5.40;1.42;;;;;;;3.20;62.72;100024.77;1782771;78;21045;-65
2022/01/15 14:57:38;;;;;;;8.23;1.82;;;;;;;3.20;61.18;100032.56;1786527;78;21042;-64
2022/01/15 15:00:08;;;;;;;5.55;1.45;;;;;;;3.20;60.74;100037.77;1752454;78;21007;-64
2022/01/15 15:02:39;;;;;;;7.12;1.57;;;;;;;3.16;60.78;100038.36;1783390;78;21121;-64
2022/01/15 15:05:07;;;;;;;8.40;1.62;;;;;;;3.18;60.63;100048.68;1778563;78;21034;-64
2022/01/15 15:07:34;;;;;;;4.10;1.40;;;;;;;3.16;59.50;100053.52;1785042;78;21112;-65
2022/01/15 15:10:02;;;;;;;6.17;1.85;;;;;;;3.19;58.57;100060.77;1755329;78;22023;-64
2022/01/15 15:12:36;;;;;;;6.28;1.70;;;;;;;3.19;57.82;100068.57;1782974;78;21531;-64
2022/01/15 15:15:05;;;;;;;3.33;0.90;;;;;;;3.17;56.79;100067.36;1750085;78;21945;-65
2022/01/15 15:17:33;;;;;;;3.72;0.57;;;;;;;3.18;56.71;100075.98;1785492;78;21110;-63
2022/01/15 15:20:00;;;;;;;3.05;0.70;;;;;;;3.15;56.25;100054.91;1784840;78;21014;-63
2022/01/15 15:22:27;;;;;;;3.85;1.30;;;;;;;3.16;56.50;100076.06;1753198;79;21105;-63
2022/01/15 15:24:54;;;;;;;3.65;0.80;;;;;;;3.15;56.61;100075.23;1782984;78;21042;-65
2022/01/15 15:27:20;;;;;;;2.67;0.98;;;;;;;3.18;56.61;100082.48;1785559;78;21014;-64
2022/01/15 15:29:47;;;;;;;2.92;0.95;;;;;;;3.19;56.71;100074.60;1752885;79;21038;-64
2022/01/15 15:32:13;;;;;;;3.80;1.02;;;;;;;3.22;56.45;100077.52;1786847;78;21061;-64
2022/01/15 15:34:40;;;;;;;4.40;1.27;;;;;;;3.20;56.26;100088.47;1784373;78;21105;-64
2022/01/15 15:37:07;;;;;;;3.90;1.12;;;;;;;3.18;56.09;100094.19;1786397;79;21046;-66
2022/01/15 15:39:33;;;;;;;3.67;1.10;;;;;;;3.21;56.31;100104.42;1783785;78;21206;-65
2022/01/15 15:42:01;;;;;;;4.03;0.95;;;;;;;3.20;56.39;100104.06;1784176;78;21049;-64
2022/01/15 15:44:28;;;;;;;2.27;0.80;;;;;;;3.23;56.17;100100.83;1783429;78;21120;-65
2022/01/15 15:46:54;;;;;;;3.60;1.25;;;;;;;3.23;56.17;100114.27;1785373;78;21034;-66
2022/01/15 15:49:21;;;;;;;4.00;1.10;;;;;;;3.20;56.34;100115.30;1787571;78;21093;-65
2022/01/15 15:51:48;;;;;;;3.83;1.10;;;;;;;3.21;56.32;100116.98;1751611;79;21906;-65
2022/01/15 15:54:14;;;;;;;4.00;1.20;;;;;;;3.20;55.92;100117.06;1761048;79;21019;-64
2022/01/15 15:56:41;;;;;;;5.55;1.50;;;;;;;3.21;56.27;100123.92;1795877;78;21586;-65
2022/01/15 15:59:07;;;;;;;5.45;1.40;;;;;;;3.22;56.04;100125.61;1792932;78;21089;-65
2022/01/15 16:01:34;;;;;;;4.28;1.62;;;;;;;3.21;55.59;100122.63;1790396;78;21064;-65
2022/01/15 16:04:00;;;;;;;3.52;1.02;;;;;;;3.23;55.64;100123.38;1759217;78;21252;-65
2022/01/15 16:06:27;;;;;;;6.87;1.02;;;;;;;3.21;55.17;100119.59;1760884;79;21045;-65
2022/01/15 16:08:53;;;;;;;3.45;1.05;;;;;;;3.22;55.27;100132.12;1793811;78;21821;-65
2022/01/15 16:11:21;;;;;;;4.92;1.15;;;;;;;3.23;55.49;100132.03;1795590;78;21041;-64
2022/01/15 16:13:47;;;;;;;4.30;1.25;;;;;;;3.22;55.05;100142.05;1765555;79;21052;-65
2022/01/15 16:16:14;;;;;;;5.10;1.52;;;;;;;3.22;54.71;100136.84;1785745;79;21220;-64
2022/01/15 16:18:41;;;;;;;4.37;1.20;;;;;;;3.24;54.75;100140.67;1788290;78;21113;-63
2022/01/15 16:21:07;;;;;;;4.37;1.00;;;;;;;3.27;54.74;100151.73;1790035;78;21053;-63
2022/01/15 16:23:34;;;;;;;4.92;1.22;;;;;;;3.26;54.58;100148.78;1793190;78;21074;-64
2022/01/15 16:26:00;;;;;;;5.53;1.37;;;;;;;3.29;54.83;100154.27;1793831;78;21053;-65
2022/01/15 16:28:26;;;;;;;3.35;1.20;;;;;;;3.27;54.68;100160.02;1761556;78;21225;-64
2022/01/15 16:30:52;;;;;;;4.58;1.00;;;;;;;3.28;54.11;100152.60;1794195;78;21062;-65
2022/01/15 16:33:19;;;;;;;3.17;1.17;;;;;;;3.26;53.90;100159.18;1790778;79;21100;-65
2022/01/15 16:35:45;;;;;;;4.55;1.25;;;;;;;3.26;53.78;100162.22;1794275;78;21011;-65
2022/01/15 16:38:12;;;;;;;6.35;1.50;;;;;;;3.26;53.49;100154.42;1796534;78;21143;-64
2022/01/15 16:40:38;;;;;;;5.45;1.90;;;;;;;3.27;53.60;100160.02;1791458;78;21193;-65
2022/01/15 16:43:05;;;;;;;5.42;1.50;;;;;;;3.27;53.83;100164.74;1789135;78;21120;-64
2022/01/15 16:45:33;;;;;;;6.03;1.22;;;;;;;3.29;53.92;100165.97;1792365;78;21060;-64
2022/01/15 16:47:59;;;;;;;4.45;1.60;;;;;;;3.27;54.01;100180.81;1759933;78;21101;-65
2022/01/15 16:50:25;;;;;;;4.33;1.90;;;;;;;3.23;54.39;100181.44;1761646;79;21050;-66
2022/01/15 16:52:52;;;;;;;5.70;1.65;;;;;;;3.22;54.62;100182.82;1782902;78;21131;-65
2022/01/15 16:55:19;;;;;;;4.25;1.65;;;;;;;3.21;54.81;100179.39;1773588;79;21788;-66
2022/01/15 16:57:46;;;;;;;6.37;2.30;;;;;;;3.21;54.78;100181.12;1756210;80;21003;-66
2022/01/15 17:00:16;;;;;;;6.05;2.00;;;;;;;3.22;54.79;100188.02;1775008;79;21073;-66
2022/01/15 17:02:46;;;;;;;4.75;1.55;;;;;;;3.19;54.70;100188.17;1773635;79;21606;-65
2022/01/15 17:05:12;;;;;;;5.90;1.77;;;;;;;3.20;55.12;100190.70;1778403;79;21523;-65
2022/01/15 17:07:38;;;;;;;4.90;1.47;;;;;;;3.21;54.86;100201.93;1779777;79;21035;-66
2022/01/15 17:10:06;;;;;;;6.55;2.17;;;;;;;3.19;54.57;100197.28;1774532;79;20999;-64
2022/01/15 17:12:32;;;;;;;10.32;1.80;;;;;;;3.19;54.52;100194.68;1777436;79;21046;-64
2022/01/15 17:14:59;;;;;;;5.83;1.60;;;;;;;3.18;54.03;100205.55;1754288;79;21153;-65
2022/01/15 17:17:25;;;;;;;5.10;1.80;;;;;;;3.19;53.81;100206.37;1748029;79;21989;-65
2022/01/15 17:19:52;;;;;;;4.40;1.70;;;;;;;3.19;53.94;100208.51;1772778;79;21543;-63
2022/01/15 17:22:18;;;;;;;5.33;1.30;;;;;;;3.18;53.26;100213.78;1777684;79;21069;-65
2022/01/15 17:24:45;;;;;;;5.28;1.70;;;;;;;3.19;53.48;100219.38;1782238;79;21036;-65
2022/01/15 17:27:11;;;;;;;7.20;2.22;;;;;;;3.21;53.89;100221.44;1771600;79;21617;-65
2022/01/15 17:29:37;;;;;;;4.28;1.67;;;;;;;3.21;53.83;100223.59;1786754;78;21148;-64
2022/01/15 17:32:06;;;;;;;4.47;1.65;;;;;;;3.23;53.37;100224.78;1768093;79;21102;-66
2022/01/15 17:34:33;;;;;;;4.65;1.60;;;;;;;3.18;52.94;100234.59;1772909;79;21043;-64
2022/01/15 17:37:00;;;;;;;4.37;1.77;;;;;;;3.18;53.31;100229.39;1784925;78;21033;-64
2022/01/15 17:39:27;;;;;;;3.65;1.40;;;;;;;3.15;53.44;100235.13;1784509;78;21077;-63
2022/01/15 17:41:54;;;;;;;6.55;1.67;;;;;;;3.15;53.42;100236.44;1771014;79;21153;-64
2022/01/15 17:44:20;;;;;;;6.03;1.50;;;;;;;3.15;53.32;100234.30;1753665;80;20966;-63
2022/01/15 17:46:47;;;;;;;3.85;1.25;;;;;;;3.14;53.21;100234.77;1733005;80;21529;-64
2022/01/15 17:49:13;;;;;;;5.08;1.45;;;;;;;3.15;53.14;100235.13;1774380;78;21032;-63
2022/01/15 17:51:40;;;;;;;5.00;1.40;;;;;;;3.13;52.89;100234.38;1779694;78;21033;-62
2022/01/15 17:54:06;;;;;;;4.35;1.40;;;;;;;3.16;53.06;100240.73;1771795;77;21051;-63
2022/01/15 17:56:33;;;;;;;5.30;1.35;;;;;;;3.14;53.32;100239.11;1782569;78;21117;-62
2022/01/15 17:58:59;;;;;;;4.85;1.15;;;;;;;3.13;53.19;100233.08;1767947;78;21092;-64
2022/01/15 18:01:26;;;;;;;3.98;1.15;;;;;;;3.12;53.29;100233.98;1757624;79;21538;-65
2022/01/15 18:03:52;;;;;;;3.37;1.20;;;;;;;3.12;52.77;100241.78;1792727;78;21065;-64
2022/01/15 18:06:19;;;;;;;3.90;1.40;;;;;;;3.15;53.27;100247.30;1815172;77;21066;-63
2022/01/15 18:08:45;;;;;;;3.77;1.32;;;;;;;3.14;53.16;100250.37;1790609;79;21515;-65
2022/01/15 18:11:14;;;;;;;3.58;1.22;;;;;;;3.11;53.14;100260.92;1781615;78;21049;-64
2022/01/15 18:13:40;;;;;;;3.83;1.32;;;;;;;3.11;52.59;100258.77;1767222;78;21578;-63
2022/01/15 18:16:07;;;;;;;3.52;1.40;;;;;;;3.11;52.71;100260.06;1780155;78;21140;-66
2022/01/15 18:18:34;;;;;;;4.55;1.40;;;;;;;3.09;52.70;100262.77;1778580;78;21038;-65
2022/01/15 18:21:00;;;;;;;5.28;1.32;;;;;;;3.12;52.82;100272.16;1808570;77;21085;-67
2022/01/15 18:23:34;;;;;;;3.37;0.93;;;;;;;3.11;52.31;100260.06;1755370;79;21532;-64
2022/01/15 18:25:55;;;;;;;3.12;0.88;;;;;;;3.14;51.90;100276.81;1772024;78;21128;-64
2022/01/15 18:28:21;;;;;;;3.42;0.85;;;;;;;3.14;51.60;100283.31;1781099;78;20995;-65
2022/01/15 18:30:48;;;;;;;2.90;0.70;;;;;;;3.16;51.30;100281.03;1814446;77;21758;-65
2022/01/15 18:33:15;;;;;;;2.40;0.78;;;;;;;3.15;51.19;100278.03;1748668;78;21046;-63
2022/01/15 18:35:41;;;;;;;3.35;1.20;;;;;;;3.18;50.83;100283.55;1779567;78;22298;-64
2022/01/15 18:38:08;;;;;;;2.62;0.78;;;;;;;3.17;50.93;100290.96;1806219;77;21097;-64
2022/01/15 18:40:34;;;;;;;2.83;0.95;;;;;;;3.18;50.89;100298.29;1799010;77;20998;-65
2022/01/15 18:43:01;;;;;;;4.25;0.93;;;;;;;3.16;50.74;100279.73;1805425;77;21155;-65
2022/01/15 18:45:27;;;;;;;3.83;0.80;;;;;;;3.18;50.79;100300.89;1809262;77;21101;-65
2022/01/15 18:47:54;;;;;;;3.47;1.07;;;;;;;3.15;50.72;100285.00;1809939;77;21023;-66
2022/01/15 18:50:22;;;;;;;3.98;0.80;;;;;;;3.19;50.79;100323.39;1805727;77;21117;-66
2022/01/15 18:52:49;;;;;;;3.12;0.93;;;;;;;3.16;50.75;100329.56;1756747;78;21105;-65
2022/01/15 18:55:17;;;;;;;2.42;0.68;;;;;;;3.18;50.58;100336.86;1780100;78;21181;-65
2022/01/15 18:57:44;;;;;;;3.87;1.07;;;;;;;3.17;50.05;100370.27;1802883;77;21042;-65
2022/01/15 19:00:15;;;;;;;6.90;1.17;;;;;;;3.18;50.00;100404.47;1810183;78;21069;-65
2022/01/15 19:02:42;;;;;;;2.40;0.70;;;;;;;3.19;49.61;100417.83;1808999;77;21132;-64
2022/01/15 19:05:11;;;;;;;2.50;0.72;;;;;;;3.22;50.16;100483.16;1808940;77;21089;-65
2022/01/15 19:07:38;;;;;;;2.83;0.72;;;;;;;3.18;50.16;100427.87;1776167;79;21144;-65
2022/01/15 19:10:06;;;;;;;3.95;1.00;;;;;;;3.20;50.51;100435.59;1801483;77;21039;-65
2022/01/15 19:12:32;;;;;;;2.37;0.65;;;;;;;3.17;50.37;100362.47;1783342;78;21022;-65
2022/01/15 19:14:59;;;;;;;3.80;0.80;;;;;;;3.16;50.35;100305.73;1749531;80;21544;-66
2022/01/15 19:17:25;;;;;;;3.10;1.00;;;;;;;3.13;50.42;100240.87;1776609;79;21062;-65
2022/01/15 19:19:52;;;;;;;2.10;0.62;;;;;;;3.12;50.51;100276.89;1750239;79;21270;-65
2022/01/15 19:22:18;;;;;;;3.45;0.98;;;;;;;3.10;50.44;100289.59;1778690;78;22012;-64
2022/01/15 19:24:46;;;;;;;5.00;1.02;;;;;;;3.10;50.67;100316.89;1778888;78;21097;-64
2022/01/15 19:27:12;;;;;;;2.60;0.80;;;;;;;3.08;50.79;100348.64;1776891;78;21102;-64
2022/01/15 19:29:39;;;;;;;2.77;0.90;;;;;;;3.10;50.90;100384.02;1806948;77;21103;-65
2022/01/15 19:32:07;;;;;;;2.67;0.68;;;;;;;3.07;50.73;100399.77;1812400;77;22208;-65
2022/01/15 19:34:33;;;;;;;3.25;0.70;;;;;;;3.10;50.87;100398.33;1798945;77;21039;-64
2022/01/15 19:37:00;;;;;;;2.40;0.85;;;;;;;3.10;50.71;100410.02;1756085;79;21048;-64
2022/01/15 19:39:27;;;;;;;3.98;0.80;;;;;;;3.13;50.95;100415.55;1771011;78;21093;-65
2022/01/15 19:41:53;;;;;;;2.65;0.80;;;;;;;3.11;50.60;100377.06;1806947;77;21037;-65
2022/01/15 19:44:19;;;;;;;3.62;0.82;;;;;;;3.15;50.76;100366.44;1772408;78;21121;-65
2022/01/15 19:46:46;;;;;;;3.27;0.70;;;;;;;3.16;50.84;100329.13;1805863;77;21069;-65
2022/01/15 19:49:12;;;;;;;5.80;1.10;;;;;;;3.14;50.45;100320.57;1777282;78;21055;-66
2022/01/15 19:51:39;;;;;;;2.92;0.68;;;;;;;3.13;50.66;100305.05;1779612;78;21054;-66
2022/01/15 19:54:05;;;;;;;2.52;0.78;;;;;;;3.12;50.29;100315.05;1808803;77;21042;-65
2022/01/15 19:56:32;;;;;;;4.92;1.10;;;;;;;3.11;50.48;100361.45;1759177;80;21070;-65
2022/01/15 19:58:59;;;;;;;3.80;1.17;;;;;;;3.12;50.40;100364.45;1775950;79;21137;-64
2022/01/15 20:01:26;;;;;;;4.15;1.02;;;;;;;3.14;50.29;100363.48;1810651;77;21093;-63
2022/01/15 20:03:53;;;;;;;2.02;0.75;;;;;;;3.13;49.70;100380.45;1814647;77;20911;-65
2022/01/15 20:06:20;;;;;;;3.08;0.65;;;;;;;3.15;49.74;100393.73;1751169;80;21537;-64
2022/01/15 20:08:46;;;;;;;2.77;0.70;;;;;;;3.12;49.79;100386.09;1794929;78;21089;-64
2022/01/15 20:11:13;;;;;;;4.35;0.98;;;;;;;3.12;49.08;100425.55;1779696;77;21753;-64
2022/01/15 20:13:40;;;;;;;2.30;0.50;;;;;;;3.11;49.03;100423.86;1780168;77;21061;-64
2022/01/15 20:16:07;;;;;;;4.30;0.95;;;;;;;3.13;49.02;100399.95;1778039;77;21007;-65
2022/01/15 20:18:33;;;;;;;4.00;0.72;;;;;;;3.11;49.11;100388.32;1773124;77;21066;-64
2022/01/15 20:20:59;;;;;;;3.22;0.80;;;;;;;3.11;49.01;100389.63;1780844;77;21058;-65
2022/01/15 20:24:55;;;;;;;4.65;0.95;;;;;;;3.13;49.27;100433.28;1793972;77;22842;-64
2022/01/15 20:30:06;;;;;;;4.97;0.90;;;;;;;3.13;49.24;100424.18;1796102;78;22007;-63
2022/01/15 20:44:37;;;;;;;4.65;1.00;;;;;;;4.61;46.38;100475.71;1796673;77;22004;-63
2022/01/15 20:47:04;;;;;;;2.58;0.70;;;;;;;4.72;45.24;100480.33;1768477;80;21064;-64
2022/01/15 20:49:33;;;;;;;2.92;0.88;;;;;;;4.59;45.37;100469.27;1778751;79;21058;-60
2022/01/15 20:52:00;;;;;;;3.60;0.98;;;;;;;4.45;45.78;100458.73;1763494;79;21164;-63
2022/01/15 20:54:27;;;;;;;3.87;0.95;;;;;;;4.26;46.13;100466.22;1772876;79;21035;-62
2022/01/15 20:56:53;;;;;;;5.90;1.15;;;;;;;4.12;46.61;100483.04;1743401;79;21578;-63
2022/01/15 20:59:21;;;;;;;3.85;1.10;;;;;;;3.96;47.03;100485.57;1763424;79;21005;-64
2022/01/15 21:01:48;;;;;;;3.15;0.90;;;;;;;3.83;47.08;100478.00;1741093;79;22225;-62
2022/01/15 21:04:17;;;;;;;5.30;0.82;;;;;;;3.70;47.66;100480.39;1708621;82;21086;-62
2022/01/15 21:06:47;;;;;;;4.80;1.05;;;;;;;3.60;47.47;100483.04;1729235;80;22698;-63
2022/01/15 21:09:14;;;;;;;4.45;1.15;;;;;;;3.52;47.55;100488.17;1732043;81;21418;-63
2022/01/15 21:11:41;;;;;;;4.60;1.30;;;;;;;3.46;47.76;100492.39;1725439;81;21591;-62
2022/01/15 21:14:08;;;;;;;5.00;1.12;;;;;;;3.42;47.91;100489.55;1731568;81;21773;-63
2022/01/15 21:16:35;;;;;;;4.12;1.10;;;;;;;3.32;47.90;100489.14;1723460;81;21014;-62
2022/01/15 21:19:02;;;;;;;3.22;1.00;;;;;;;3.32;48.05;100498.24;1725847;81;21129;-63
2022/01/15 21:21:30;;;;;;;3.05;1.00;;;;;;;3.26;48.14;100492.05;1728879;81;21106;-61
2022/01/15 21:23:56;;;;;;;3.00;0.95;;;;;;;3.28;48.36;100486.31;1730212;81;21066;-62
2022/01/15 21:26:23;;;;;;;5.83;1.20;;;;;;;3.25;48.43;100490.36;1695468;82;21081;-59
2022/01/15 21:28:50;;;;;;;2.52;0.70;;;;;;;3.24;48.69;100493.03;1690025;81;21090;-61
2022/01/15 21:31:18;;;;;;;3.37;1.00;;;;;;;3.23;48.88;100490.03;1720889;81;21082;-61
2022/01/15 21:33:44;;;;;;;4.58;1.00;;;;;;;3.22;49.17;100485.77;1727634;81;21208;-62
2022/01/15 21:36:10;;;;;;;3.52;1.10;;;;;;;3.19;49.53;100496.30;1728594;81;21667;-64
2022/01/15 21:38:37;;;;;;;6.17;1.52;;;;;;;3.18;49.88;100499.38;1694230;81;21433;-63
2022/01/15 21:41:03;;;;;;;3.27;1.00;;;;;;;3.18;50.31;100499.81;1727287;81;21193;-61
2022/01/15 21:43:30;;;;;;;2.37;0.70;;;;;;;3.19;50.43;100501.51;1717575;81;21113;-62
2022/01/15 21:45:59;;;;;;;2.80;0.78;;;;;;;3.15;50.86;100514.65;1719131;81;21090;-62
2022/01/15 21:48:26;;;;;;;3.98;0.90;;;;;;;3.17;50.95;100517.18;1707976;81;21130;-63
2022/01/15 21:50:53;;;;;;;2.15;0.62;;;;;;;3.15;50.92;100518.55;1711930;81;21117;-62
2022/01/15 21:53:19;;;;;;;3.42;1.00;;;;;;;3.18;50.49;100527.98;1686089;81;21176;-63
2022/01/15 21:55:46;;;;;;;3.05;0.80;;;;;;;3.13;50.03;100520.85;1716883;81;21093;-60
2022/01/15 21:58:13;;;;;;;3.92;1.35;;;;;;;3.15;50.33;100541.95;1718084;81;21513;-60